Time;durP1;ratioP1;P1;durP2;ratioP2;P2;SDS_P1;SDS_P2;PMS_P1;PMS_P2;Temp;Humidity;BMP_temperature;BMP_pressure;BME280_temperature;BME280_humidity;BME280_pressure;Samples;Min_cycle;Max_cycle;Signal;HPM_P1;HPM_P2
2022/08/18 00:01:59;;;;;;;13.07;12.10;;;;;;;22.71;75.16;100394.91;4985194;28;104012;-55
2022/08/18 00:04:27;;;;;;;10.73;9.93;;;;;;;22.73;75.17;100397.34;4917309;28;102248;-54
2022/08/18 00:06:54;;;;;;;11.23;10.27;;;;;;;22.71;75.19;100397.69;5004356;28;102206;-54
2022/08/18 00:09:21;;;;;;;10.75;9.73;;;;;;;22.72;75.22;100391.00;4950271;28;102341;-54
2022/08/18 00:11:47;;;;;;;11.13;10.32;;;;;;;22.72;75.26;100396.53;4947975;28;103822;-55
2022/08/18 00:14:17;;;;;;;12.45;11.50;;;;;;;22.71;75.00;100394.91;4935650;28;102211;-55
2022/08/18 00:16:44;;;;;;;11.60;10.77;;;;;;;22.72;75.14;100396.53;4937013;28;102054;-55
2022/08/18 00:19:11;;;;;;;10.93;10.13;;;;;;;22.72;75.35;100399.31;4994050;28;102687;-54
2022/08/18 00:21:39;;;;;;;10.40;9.60;;;;;;;22.71;75.21;100389.34;4965323;28;104081;-55
2022/08/18 00:24:05;;;;;;;11.20;10.30;;;;;;;22.72;75.01;100395.69;4967889;28;102093;-55
2022/08/18 00:26:32;;;;;;;11.27;10.35;;;;;;;22.71;75.06;100400.44;4960604;28;102598;-55
2022/08/18 00:28:59;;;;;;;10.63;9.82;;;;;;;22.72;75.26;100404.84;5021049;28;102537;-54
2022/08/18 00:31:25;;;;;;;11.10;10.23;;;;;;;22.73;75.21;100409.22;5038317;28;103990;-54
2022/08/18 00:33:52;;;;;;;12.57;11.55;;;;;;;22.71;75.22;100406.00;5038907;28;102397;-54
2022/08/18 00:36:18;;;;;;;10.93;10.10;;;;;;;22.72;75.07;100413.19;4999253;27;102694;-55
2022/08/18 00:38:47;;;;;;;10.85;9.98;;;;;;;22.71;75.07;100411.53;4998523;28;102134;-54
2022/08/18 00:41:13;;;;;;;10.77;9.98;;;;;;;22.71;75.19;100406.00;4978174;28;103867;-54
2022/08/18 00:43:43;;;;;;;12.05;11.05;;;;;;;22.72;75.07;100417.91;4971917;28;102191;-55
2022/08/18 00:46:15;;;;;;;10.20;9.43;;;;;;;22.71;75.20;100414.31;5020037;28;101989;-55
2022/08/18 00:48:42;;;;;;;11.85;10.95;;;;;;;22.71;75.09;100421.84;5039850;28;102285;-55
2022/08/18 00:51:13;;;;;;;11.13;10.32;;;;;;;22.71;75.38;100407.97;5023724;28;104063;-54
2022/08/18 00:53:44;;;;;;;12.05;11.15;;;;;;;22.70;75.15;100412.72;4962984;28;101973;-54
2022/08/18 00:56:15;;;;;;;11.27;10.38;;;;;;;22.70;75.30;100404.41;5022746;28;102009;-55
2022/08/18 00:58:45;;;;;;;10.63;9.73;;;;;;;22.69;75.24;100408.34;5038807;28;102701;-55
2022/08/18 01:01:13;;;;;;;11.85;10.88;;;;;;;22.71;75.16;100408.78;4982663;28;103832;-55
2022/08/18 01:03:43;;;;;;;10.88;10.07;;;;;;;22.69;74.84;100405.56;4917855;28;102310;-54
2022/08/18 01:06:15;;;;;;;11.63;10.55;;;;;;;22.71;75.16;100406.00;4938979;28;102063;-55
2022/08/18 01:08:42;;;;;;;12.05;11.05;;;;;;;22.70;75.02;100409.94;4936993;28;102706;-54
2022/08/18 01:11:09;;;;;;;11.60;10.65;;;;;;;22.70;75.06;100409.94;4936986;28;103908;-55
2022/08/18 01:13:40;;;;;;;11.93;10.95;;;;;;;22.71;75.18;100407.97;4935757;28;102198;-55
2022/08/18 01:21:51;;;;;;;11.70;10.73;;;;;;;22.70;75.27;100407.16;4916470;28;104185;-55
2022/08/18 01:24:21;;;;;;;11.93;11.02;;;;;;;22.69;75.04;100397.25;4931078;28;102284;-55
2022/08/18 01:26:50;;;;;;;11.00;10.20;;;;;;;22.71;75.31;100403.22;4949452;28;102048;-55
2022/08/18 01:29:19;;;;;;;10.90;10.10;;;;;;;22.70;75.17;100403.59;5020462;28;102113;-58
2022/08/18 01:31:54;;;;;;;11.65;10.75;;;;;;;22.70;75.14;100404.41;5037263;28;107928;-54
2022/08/18 01:34:23;;;;;;;11.93;10.93;;;;;;;22.70;75.06;100407.16;5018372;28;102260;-55
2022/08/18 01:36:52;;;;;;;11.75;10.75;;;;;;;22.70;75.10;100401.63;4916517;28;102201;-55
2022/08/18 01:39:21;;;;;;;10.75;9.95;;;;;;;22.69;75.04;100397.25;4919037;28;102247;-54
2022/08/18 01:41:48;;;;;;;11.15;10.23;;;;;;;22.70;75.09;100398.84;4983664;28;103890;-55
2022/08/18 01:44:14;;;;;;;11.02;10.15;;;;;;;22.70;75.00;100398.84;5038247;28;101977;-55
2022/08/18 01:46:41;;;;;;;11.20;10.20;;;;;;;22.70;75.11;100398.06;4999202;28;102416;-55
2022/08/18 01:49:09;;;;;;;10.77;9.98;;;;;;;22.69;75.13;100394.47;4991984;28;102195;-55
2022/08/18 01:51:36;;;;;;;10.77;9.93;;;;;;;22.69;75.12;100386.16;5036709;28;104033;-55
2022/08/18 01:54:04;;;;;;;11.70;10.80;;;;;;;22.69;75.07;100385.34;4954865;28;101998;-55
2022/08/18 01:56:31;;;;;;;11.52;10.63;;;;;;;22.69;75.04;100390.91;5037023;28;102145;-55
2022/08/18 01:58:58;;;;;;;11.93;10.93;;;;;;;22.68;75.10;100387.31;5000390;28;102137;-55
2022/08/18 02:01:26;;;;;;;11.88;10.88;;;;;;;22.68;74.98;100384.53;5021083;28;103845;-55
2022/08/18 02:03:58;;;;;;;11.77;10.80;;;;;;;22.69;75.15;100380.59;4935889;28;102197;-55
2022/08/18 02:06:25;;;;;;;13.05;11.88;;;;;;;22.69;75.19;100375.06;4935758;28;102206;-55
2022/08/18 02:08:51;;;;;;;12.60;11.52;;;;;;;22.70;75.16;100390.53;4941108;28;102408;-55
2022/08/18 02:11:18;;;;;;;11.90;11.00;;;;;;;22.69;75.05;100391.69;4947883;28;103937;-55
2022/08/18 02:13:46;;;;;;;11.93;10.95;;;;;;;22.70;75.10;100389.72;4934632;28;101954;-55
2022/08/18 02:16:13;;;;;;;11.63;10.65;;;;;;;22.68;74.87;100387.31;4942979;28;102255;-55
2022/08/18 02:18:41;;;;;;;12.75;11.45;;;;;;;22.68;75.30;100380.94;4923891;28;102210;-55
2022/08/18 02:21:10;;;;;;;12.75;11.63;;;;;;;22.68;75.08;100378.19;5022148;28;103961;-55
2022/08/18 02:23:37;;;;;;;12.13;11.13;;;;;;;22.68;75.08;100378.97;5008371;28;102028;-55
2022/08/18 02:26:05;;;;;;;10.32;9.57;;;;;;;22.69;75.24;100374.25;5033330;28;102302;-55
2022/08/18 02:28:32;;;;;;;12.15;11.15;;;;;;;22.68;75.03;100367.88;5038157;28;102148;-54
2022/08/18 02:31:05;;;;;;;11.43;10.48;;;;;;;22.69;75.35;100374.25;5022102;28;104057;-55
2022/08/18 02:33:32;;;;;;;11.43;10.43;;;;;;;22.68;75.18;100378.97;5036927;28;102013;-55
2022/08/18 02:35:59;;;;;;;11.20;10.27;;;;;;;22.68;75.11;100384.53;5032687;28;102297;-55
2022/08/18 02:38:26;;;;;;;11.63;10.73;;;;;;;22.68;75.18;100372.63;5029319;28;102300;-55
2022/08/18 02:40:54;;;;;;;12.85;11.75;;;;;;;22.69;75.03;100382.59;5035827;28;103903;-55
2022/08/18 02:43:21;;;;;;;12.82;11.82;;;;;;;22.68;75.03;100384.53;5036653;28;102141;-55
2022/08/18 02:45:48;;;;;;;12.13;11.18;;;;;;;22.68;75.14;100392.84;5030635;28;102491;-55
2022/08/18 02:48:18;;;;;;;11.75;10.65;;;;;;;22.67;75.21;100391.25;5033497;28;102144;-55
2022/08/18 02:50:47;;;;;;;11.27;10.38;;;;;;;22.68;75.31;100394.81;5035607;28;103943;-55
2022/08/18 02:53:23;;;;;;;12.02;11.13;;;;;;;22.68;75.24;100392.84;4989105;28;102448;-54
2022/08/18 02:55:50;;;;;;;12.65;11.57;;;;;;;22.69;75.12;100394.47;5031658;28;102535;-55
2022/08/18 02:58:19;;;;;;;12.90;11.90;;;;;;;22.67;75.21;100396.78;5023193;28;102129;-55
2022/08/18 03:00:45;;;;;;;12.80;11.70;;;;;;;22.67;75.35;100393.22;4935514;28;103967;-55
2022/08/18 03:03:12;;;;;;;11.88;10.98;;;;;;;22.66;75.14;100395.19;4924164;28;102154;-55
2022/08/18 03:05:40;;;;;;;11.38;10.45;;;;;;;22.67;75.16;100399.56;5032196;28;102309;-55
2022/08/18 03:08:09;;;;;;;11.93;10.97;;;;;;;22.68;75.26;100403.13;5017028;28;102244;-54
2022/08/18 03:10:35;;;;;;;11.30;10.40;;;;;;;22.68;75.18;100400.38;5009165;28;103864;-55
2022/08/18 03:13:02;;;;;;;11.52;10.63;;;;;;;22.67;75.34;100404.31;5021600;28;102350;-55
2022/08/18 03:15:29;;;;;;;11.70;10.80;;;;;;;22.67;75.30;100402.34;4959823;28;102324;-55
2022/08/18 03:17:56;;;;;;;12.13;11.23;;;;;;;22.68;75.53;100400.38;5039809;28;102235;-55
2022/08/18 03:20:23;;;;;;;11.10;10.20;;;;;;;22.67;75.18;100405.13;5031067;28;103889;-55
2022/08/18 03:22:51;;;;;;;11.32;10.43;;;;;;;22.67;75.31;100396.78;5022389;28;101842;-55
2022/08/18 03:28:43;;;;;;;10.93;9.93;;;;;;;22.66;75.18;100402.72;4927417;28;102449;-55
2022/08/18 03:31:13;;;;;;;11.48;10.50;;;;;;;22.65;75.25;100401.91;4917320;28;104016;-55
2022/08/18 03:33:41;;;;;;;11.88;11.00;;;;;;;22.66;75.34;100402.72;4918168;28;102219;-54
2022/08/18 03:36:11;;;;;;;11.18;10.27;;;;;;;22.67;74.84;100407.88;4917092;28;102332;-54
2022/08/18 03:38:39;;;;;;;10.95;10.05;;;;;;;22.66;75.34;100414.63;4938985;28;102308;-55
2022/08/18 03:41:06;;;;;;;12.07;11.10;;;;;;;22.67;75.12;100416.22;5038282;28;103972;-55
2022/08/18 03:43:32;;;;;;;12.35;11.25;;;;;;;22.67;75.23;100410.66;5032233;28;102101;-55
2022/08/18 03:46:00;;;;;;;10.88;10.05;;;;;;;22.67;75.17;100421.75;5039027;28;102548;-55
2022/08/18 03:48:26;;;;;;;10.90;10.10;;;;;;;22.66;75.12;100428.47;5036590;28;102204;-54
2022/08/18 03:50:53;;;;;;;11.27;10.32;;;;;;;22.67;75.16;100426.50;5038626;28;103488;-55
2022/08/18 03:53:20;;;;;;;11.13;10.23;;;;;;;22.66;75.28;100422.94;4977310;28;102100;-55
2022/08/18 03:55:49;;;;;;;;;;;;;;;22.67;75.15;100432.84;4944077;28;102253;-55
2022/08/18 03:58:16;;;;;;;10.80;9.88;;;;;;;22.67;75.13;100432.06;5040120;28;102206;-54
2022/08/18 04:00:42;;;;;;;11.32;10.32;;;;;;;22.67;75.31;100432.84;5027256;28;103962;-55
2022/08/18 04:03:09;;;;;;;11.20;10.35;;;;;;;22.67;75.18;100432.84;5023636;28;102112;-55
2022/08/18 04:05:38;;;;;;;11.27;10.27;;;;;;;22.68;75.09;100437.22;4956410;28;102441;-55
2022/08/18 04:08:05;;;;;;;11.52;10.52;;;;;;;22.67;75.13;100427.31;4936560;28;102290;-55
2022/08/18 04:10:32;;;;;;;11.80;10.88;;;;;;;22.68;75.09;100428.91;4929610;28;104079;-55
2022/08/18 04:13:04;;;;;;;11.80;10.80;;;;;;;22.69;75.12;100426.97;4972130;28;102766;-55
2022/08/18 04:15:32;;;;;;;11.85;10.55;;;;;;;22.69;75.09;100425.00;4916927;28;102184;-54
2022/08/18 04:17:59;;;;;;;11.38;10.48;;;;;;;22.68;74.94;100434.44;4918742;28;102171;-54
2022/08/18 04:20:25;;;;;;;11.82;10.85;;;;;;;22.69;75.00;100419.44;4916603;28;103895;-54
2022/08/18 04:22:53;;;;;;;11.85;10.85;;;;;;;22.69;75.01;100425.00;4952488;28;102417;-55
2022/08/18 04:25:20;;;;;;;11.95;10.98;;;;;;;22.68;74.91;100423.34;4935164;28;102398;-54
2022/08/18 04:27:47;;;;;;;11.15;10.27;;;;;;;22.69;75.10;100425.00;4979734;28;102113;-54
2022/08/18 04:30:14;;;;;;;11.13;10.23;;;;;;;22.70;75.01;100436.88;4954592;28;104089;-54
2022/08/18 04:32:42;;;;;;;11.37;10.47;;;;;;;22.68;75.04;100434.44;4972345;27;102093;-55
2022/08/18 04:35:08;;;;;;;11.15;10.18;;;;;;;22.68;75.11;100440.00;5035336;28;102164;-54
2022/08/18 04:37:36;;;;;;;11.02;10.02;;;;;;;22.69;75.11;100432.50;5039631;28;102232;-55
2022/08/18 04:40:03;;;;;;;10.88;10.07;;;;;;;22.70;75.06;100442.44;5012636;28;103965;-55
2022/08/18 04:42:30;;;;;;;11.10;10.07;;;;;;;22.70;75.03;100442.44;5030664;28;102252;-55
2022/08/18 04:44:57;;;;;;;12.00;10.95;;;;;;;22.70;75.24;100446.00;4929671;28;102597;-55
2022/08/18 04:47:25;;;;;;;11.57;10.57;;;;;;;22.70;74.95;100443.22;4918441;28;102334;-55
2022/08/18 04:49:52;;;;;;;11.57;10.57;;;;;;;22.70;75.02;100445.22;4936616;28;104020;-55
2022/08/18 04:55:05;;;;;;;11.93;10.98;;;;;;;22.70;75.06;100462.66;4916847;28;102249;-55
2022/08/18 04:57:32;;;;;;;11.57;10.67;;;;;;;22.69;75.00;100451.94;4918018;28;102210;-55
2022/08/18 04:59:58;;;;;;;11.10;10.30;;;;;;;22.70;75.16;100459.88;4991988;28;104009;-55
2022/08/18 05:02:26;;;;;;;12.27;11.38;;;;;;;22.70;74.99;100457.09;5014817;28;101989;-55
2022/08/18 05:04:53;;;;;;;11.77;10.77;;;;;;;22.69;75.07;100452.72;4958543;28;102356;-55
2022/08/18 05:07:24;;;;;;;11.48;10.48;;;;;;;22.70;75.27;100454.34;5000597;28;102168;-55
2022/08/18 05:09:52;;;;;;;11.38;10.38;;;;;;;22.69;75.03;100458.28;5037398;28;104133;-55
2022/08/18 05:12:19;;;;;;;11.57;10.50;;;;;;;22.70;74.96;100453.53;4932220;28;101957;-55
2022/08/18 05:14:46;;;;;;;11.02;10.13;;;;;;;22.71;75.15;100455.13;4932650;28;102154;-55
2022/08/18 05:17:14;;;;;;;11.68;10.77;;;;;;;22.71;74.98;100457.91;4965701;28;102178;-54
2022/08/18 05:19:43;;;;;;;11.37;10.43;;;;;;;22.71;75.11;100461.47;5021683;28;104121;-55
2022/08/18 05:22:09;;;;;;;12.25;11.13;;;;;;;22.72;75.07;100457.56;4944537;28;102577;-54
2022/08/18 05:24:37;;;;;;;11.70;10.63;;;;;;;22.72;74.94;100463.09;4944089;28;102893;-55
2022/08/18 05:27:04;;;;;;;12.52;11.52;;;;;;;22.72;74.97;100457.56;4962219;28;102112;-55
2022/08/18 05:29:37;;;;;;;11.23;10.30;;;;;;;22.73;75.00;100464.72;5021644;28;103880;-55
2022/08/18 05:32:06;;;;;;;12.30;11.38;;;;;;;22.74;75.11;100458.00;4947899;28;102327;-56
2022/08/18 05:34:34;;;;;;;11.45;10.65;;;;;;;22.75;75.17;100456.81;5023314;28;102340;-55
2022/08/18 05:37:14;;;;;;;12.05;11.05;;;;;;;22.77;75.00;100457.28;5028229;28;102676;-55
2022/08/18 05:39:51;;;;;;;11.52;10.60;;;;;;;22.79;74.85;100454.13;5022014;28;103917;-55
2022/08/18 05:42:21;;;;;;;11.68;10.77;;;;;;;22.79;75.00;100454.13;4933892;28;101967;-55
2022/08/18 05:44:49;;;;;;;11.70;10.65;;;;;;;22.81;74.83;100459.34;4935578;28;102080;-55
2022/08/18 05:47:21;;;;;;;11.80;10.90;;;;;;;22.80;75.03;100452.97;4926099;28;102466;-54
2022/08/18 05:49:48;;;;;;;11.65;10.68;;;;;;;22.80;75.27;100464.06;4956108;28;104131;-55
2022/08/18 05:52:21;;;;;;;11.98;10.98;;;;;;;22.79;74.77;100463.28;4954843;28;102285;-55
2022/08/18 05:57:44;;;;;;;11.77;10.85;;;;;;;22.80;74.93;100469.63;4982832;28;102199;-54
2022/08/18 06:00:12;;;;;;;10.77;9.93;;;;;;;22.81;74.88;100464.88;4967496;27;103870;-54
2022/08/18 06:02:46;;;;;;;11.03;10.03;;;;;;;22.83;74.74;100479.19;4923234;28;102121;-55
2022/08/18 06:05:19;;;;;;;11.57;10.57;;;;;;;22.84;74.53;100475.25;4929256;28;102148;-54
2022/08/18 06:07:55;;;;;;;11.55;10.55;;;;;;;22.85;74.63;100472.13;4932611;28;101934;-55
2022/08/18 06:10:22;;;;;;;11.45;10.35;;;;;;;22.86;74.74;100470.13;4933738;28;103971;-55
2022/08/18 06:12:52;;;;;;;11.13;10.23;;;;;;;22.88;74.58;100476.16;4935633;28;102171;-54
2022/08/18 06:15:28;;;;;;;11.52;10.60;;;;;;;22.95;74.31;100473.56;4938595;28;102467;-54
2022/08/18 06:18:17;;;;;;;10.95;9.95;;;;;;;22.96;74.33;100472.41;4919630;28;102171;-55
2022/08/18 06:21:09;;;;;;;10.70;9.90;;;;;;;22.98;74.20;100470.06;4933216;28;104158;-54
2022/08/18 06:23:45;;;;;;;10.57;9.63;;;;;;;23.00;74.17;100464.94;4915474;28;102245;-55
2022/08/18 06:26:18;;;;;;;11.02;10.13;;;;;;;23.00;74.12;100462.19;4999750;28;102479;-55
2022/08/18 06:28:59;;;;;;;11.35;10.25;;;;;;;23.01;73.94;100463.81;4936207;28;102344;-55
2022/08/18 06:31:40;;;;;;;11.27;10.38;;;;;;;23.01;74.04;100463.81;4925743;28;107987;-53
2022/08/18 06:34:20;;;;;;;10.50;9.55;;;;;;;23.03;74.10;100467.00;5002895;28;101993;-54
2022/08/18 06:36:53;;;;;;;11.30;10.27;;;;;;;23.02;74.38;100462.63;4943947;28;102475;-55
2022/08/18 06:39:28;;;;;;;10.98;10.10;;;;;;;23.04;74.15;100463.06;4936322;28;102142;-54
2022/08/18 06:41:54;;;;;;;10.77;9.88;;;;;;;23.05;74.20;100463.88;4980231;28;103925;-55
2022/08/18 06:44:29;;;;;;;11.07;10.18;;;;;;;23.05;74.09;100464.69;4918447;28;102163;-54
2022/08/18 06:47:03;;;;;;;10.00;9.20;;;;;;;23.05;74.10;100459.13;4934107;28;102057;-54
2022/08/18 06:49:42;;;;;;;10.85;9.95;;;;;;;23.06;74.06;100448.84;4945483;28;102668;-54
2022/08/18 06:52:24;;;;;;;9.82;9.02;;;;;;;23.07;74.12;100456.78;4938589;28;104272;-54
2022/08/18 06:54:54;;;;;;;9.43;8.63;;;;;;;23.07;74.02;100448.47;4937772;28;102338;-54
2022/08/18 06:57:26;;;;;;;10.85;9.95;;;;;;;23.09;73.81;100446.13;5006220;28;102269;-55
2022/08/18 06:59:59;;;;;;;10.40;9.60;;;;;;;23.11;74.00;100446.56;4933065;28;102503;-55
2022/08/18 07:02:44;;;;;;;10.50;9.60;;;;;;;23.13;73.86;100444.25;4919292;28;104019;-55
2022/08/18 07:05:23;;;;;;;9.73;8.90;;;;;;;23.12;74.11;100441.84;5002703;28;102141;-54
2022/08/18 07:08:06;;;;;;;9.23;8.43;;;;;;;23.12;73.98;100442.66;4952855;28;101962;-54
2022/08/18 07:10:36;;;;;;;9.43;8.63;;;;;;;23.15;73.80;100446.66;4918739;28;102015;-55
2022/08/18 07:13:14;;;;;;;9.68;8.85;;;;;;;23.15;73.81;100441.09;4928890;28;104179;-55
2022/08/18 07:15:44;;;;;;;9.90;8.88;;;;;;;23.15;73.70;100441.94;4987840;28;102138;-54
2022/08/18 07:18:12;;;;;;;9.38;8.57;;;;;;;23.16;73.89;100437.97;5007251;28;102260;-55
2022/08/18 07:20:43;;;;;;;10.07;9.13;;;;;;;23.17;73.74;100444.31;5029506;28;102264;-55
2022/08/18 07:23:21;;;;;;;9.57;8.77;;;;;;;23.17;73.80;100436.78;5003053;28;103933;-55
2022/08/18 07:25:58;;;;;;;10.02;9.23;;;;;;;23.19;73.54;100437.25;5017693;28;102143;-55
2022/08/18 07:28:31;;;;;;;10.20;9.30;;;;;;;23.24;73.50;100442.50;5036337;28;102239;-55
2022/08/18 07:31:23;;;;;;;9.55;8.75;;;;;;;23.25;73.50;100441.31;4937628;28;102218;-55
2022/08/18 07:33:56;;;;;;;10.18;9.18;;;;;;;23.27;73.50;100438.19;4932505;28;104073;-55
2022/08/18 07:36:28;;;;;;;10.35;9.55;;;;;;;23.29;73.59;100444.19;4937971;28;103980;-55
2022/08/18 07:38:59;;;;;;;10.68;9.77;;;;;;;23.31;73.48;100444.63;4923578;28;102192;-55
2022/08/18 07:41:38;;;;;;;10.00;9.20;;;;;;;23.30;73.67;100442.19;4927054;28;102209;-55
2022/08/18 07:44:17;;;;;;;10.18;9.27;;;;;;;23.29;73.51;100441.41;4947440;28;107995;-55
2022/08/18 07:46:50;;;;;;;10.75;9.85;;;;;;;23.31;73.40;100438.28;4984288;28;102012;-55
2022/08/18 07:49:19;;;;;;;11.00;10.10;;;;;;;23.33;73.68;100435.91;4940184;28;102165;-55
2022/08/18 07:51:51;;;;;;;11.15;10.25;;;;;;;23.32;73.41;100431.53;4924202;28;102128;-56
2022/08/18 07:54:29;;;;;;;9.68;8.77;;;;;;;23.33;73.39;100430.38;4926699;28;108433;-53
2022/08/18 07:57:02;;;;;;;;;;;;;;;23.34;73.58;100429.22;4968149;28;102668;-54
2022/08/18 07:59:35;;;;;;;9.40;8.50;;;;;;;23.34;73.33;100432.00;4999696;28;103595;-55
2022/08/18 08:02:18;;;;;;;10.23;9.32;;;;;;;23.32;73.58;100429.56;4959421;28;102098;-55
2022/08/18 08:04:49;;;;;;;10.68;9.75;;;;;;;23.35;73.52;100433.59;4941922;28;103914;-55
2022/08/18 08:07:20;;;;;;;9.38;8.57;;;;;;;23.34;73.44;100426.44;4954353;28;102400;-54
2022/08/18 08:09:56;;;;;;;9.85;9.05;;;;;;;23.34;73.58;100421.69;4975576;28;102249;-55
2022/08/18 08:12:31;;;;;;;10.13;9.32;;;;;;;23.34;73.71;100421.69;4947485;28;102418;-55
2022/08/18 08:15:08;;;;;;;9.38;8.65;;;;;;;23.35;73.53;100425.28;4951564;28;103921;-55
2022/08/18 08:17:45;;;;;;;10.00;9.10;;;;;;;23.37;73.26;100425.69;4992582;28;102276;-55
2022/08/18 08:20:21;;;;;;;9.95;9.10;;;;;;;23.35;73.31;100419.72;4977211;28;102017;-55
2022/08/18 08:23:03;;;;;;;9.88;8.98;;;;;;;23.35;73.50;100419.72;4996698;28;102234;-55
2022/08/18 08:25:39;;;;;;;9.80;9.00;;;;;;;23.37;73.34;100415.41;4999099;28;103890;-55
2022/08/18 08:28:21;;;;;;;9.63;8.73;;;;;;;23.37;73.46;100420.13;4975935;28;102484;-55
2022/08/18 08:30:57;;;;;;;10.18;9.18;;;;;;;23.38;73.38;100405.09;5001029;28;102375;-55
2022/08/18 08:33:36;;;;;;;11.23;9.05;;;;;;;23.38;73.33;100411.47;5016390;28;102212;-55
2022/08/18 08:36:07;;;;;;;9.73;8.82;;;;;;;23.38;73.68;100417.00;4971250;28;103956;-55
2022/08/18 08:38:41;;;;;;;9.95;9.10;;;;;;;23.38;73.51;100410.66;5005627;28;102053;-54
2022/08/18 08:41:13;;;;;;;9.98;9.05;;;;;;;23.38;73.44;100410.66;4984320;28;103454;-55
2022/08/18 08:43:46;;;;;;;9.45;8.73;;;;;;;23.37;73.24;100403.47;4948137;28;102294;-54
2022/08/18 08:46:20;;;;;;;9.02;8.23;;;;;;;23.39;73.14;100395.59;4923417;28;104146;-55
2022/08/18 08:48:51;;;;;;;9.95;9.15;;;;;;;23.39;73.32;100395.59;4928074;28;102238;-55
2022/08/18 08:51:31;;;;;;;8.82;7.93;;;;;;;23.39;73.50;100393.63;4923692;28;102566;-55
2022/08/18 08:54:02;;;;;;;9.45;8.65;;;;;;;23.40;73.35;100391.66;4990893;28;102274;-55
2022/08/18 08:56:35;;;;;;;9.52;8.63;;;;;;;23.41;73.21;100394.06;4968863;28;103944;-56
2022/08/18 08:59:07;;;;;;;9.23;8.50;;;;;;;23.42;73.32;100400.44;4996676;28;102157;-54
2022/08/18 09:01:44;;;;;;;9.65;8.85;;;;;;;23.43;73.02;100404.81;4943842;28;102184;-55
2022/08/18 09:04:22;;;;;;;9.85;9.05;;;;;;;23.42;73.26;100411.53;5020996;28;102107;-55
2022/08/18 09:07:04;;;;;;;9.80;9.00;;;;;;;23.41;73.50;100415.50;4999746;28;108202;-55
2022/08/18 09:09:55;;;;;;;8.93;8.23;;;;;;;23.43;73.33;100407.56;5031151;28;102480;-54
2022/08/18 09:12:40;;;;;;;9.77;8.98;;;;;;;23.41;73.33;100415.50;5025565;28;102265;-55
2022/08/18 09:15:27;;;;;;;9.35;8.65;;;;;;;23.40;73.39;100413.84;4919282;28;102334;-55
2022/08/18 09:18:28;;;;;;;8.73;8.02;;;;;;;23.40;73.14;100414.66;4993748;28;103864;-54
2022/08/18 09:21:04;;;;;;;9.10;8.32;;;;;;;23.40;73.27;100413.84;4941064;28;102468;-55
2022/08/18 09:23:34;;;;;;;8.70;8.00;;;;;;;23.39;73.43;100417.81;4916015;28;102363;-55
2022/08/18 09:26:23;;;;;;;9.48;8.68;;;;;;;23.37;73.29;100417.34;4986547;28;102738;-55
2022/08/18 09:28:57;;;;;;;10.27;8.40;;;;;;;23.34;73.47;100418.13;4915867;28;108323;-55
2022/08/18 09:31:27;;;;;;;11.32;8.25;;;;;;;23.31;73.66;100422.41;4933353;28;104430;-55
2022/08/18 09:34:09;;;;;;;9.55;8.75;;;;;;;23.29;73.51;100419.19;4985443;28;102049;-55
2022/08/18 09:36:53;;;;;;;9.77;8.98;;;;;;;23.27;73.68;100416.78;4964127;28;102097;-54
2022/08/18 09:42:15;;;;;;;8.55;7.78;;;;;;;23.22;73.95;100413.50;4930973;28;102296;-55
2022/08/18 09:45:07;;;;;;;8.82;7.97;;;;;;;23.19;73.92;100415.03;4935947;28;102080;-55
2022/08/18 09:47:57;;;;;;;9.70;8.82;;;;;;;23.18;74.09;100418.16;4936373;28;101987;-55
2022/08/18 09:50:52;;;;;;;9.10;8.30;;;;;;;23.17;73.91;100419.34;4925093;28;108234;-54
2022/08/18 09:53:53;;;;;;;8.75;8.05;;;;;;;23.15;74.04;100428.03;4931098;28;102255;-55
2022/08/18 09:56:56;;;;;;;8.98;8.27;;;;;;;23.15;74.22;100424.44;4919753;28;102569;-55
2022/08/18 09:59:55;;;;;;;9.52;8.77;;;;;;;23.14;74.11;100429.19;4916613;28;102226;-54
2022/08/18 10:03:10;;;;;;;9.23;8.48;;;;;;;23.13;74.06;100422.03;4931122;28;108676;-54
2022/08/18 10:05:55;;;;;;;8.93;8.23;;;;;;;23.14;73.84;100423.63;4915150;28;102381;-55
2022/08/18 10:09:09;;;;;;;9.95;9.15;;;;;;;23.14;74.15;100429.19;4964412;28;102256;-54
2022/08/18 10:11:56;;;;;;;9.20;8.40;;;;;;;23.15;73.83;100422.50;4961133;28;102245;-54
2022/08/18 10:14:44;;;;;;;9.40;8.63;;;;;;;23.15;73.94;100430.81;5030762;28;103704;-55
2022/08/18 10:17:21;;;;;;;8.97;8.27;;;;;;;23.15;74.16;100425.25;5036456;28;102612;-54
2022/08/18 10:19:58;;;;;;;9.40;8.60;;;;;;;23.14;74.15;100418.09;5015092;28;102390;-55
2022/08/18 10:22:37;;;;;;;9.85;8.98;;;;;;;23.15;73.97;100419.72;5000548;28;102204;-55
2022/08/18 10:25:07;;;;;;;8.82;8.13;;;;;;;23.15;73.94;100419.72;4936748;28;103887;-55
2022/08/18 10:27:47;;;;;;;9.63;8.82;;;;;;;23.15;73.97;100411.38;4924602;28;102701;-55
2022/08/18 10:30:47;;;;;;;9.32;8.52;;;;;;;23.15;74.12;100407.78;4986311;28;102205;-55
2022/08/18 10:34:03;;;;;;;8.70;8.00;;;;;;;23.15;74.00;100403.06;4957087;28;102132;-55
2022/08/18 10:36:45;;;;;;;8.88;8.05;;;;;;;23.15;74.01;100403.06;4954172;28;108066;-55
2022/08/18 10:39:14;;;;;;;7.97;7.38;;;;;;;23.15;73.92;100397.50;4980685;28;102664;-55
2022/08/18 10:41:56;;;;;;;9.05;8.35;;;;;;;23.16;73.85;100388.00;4934513;28;102732;-55
2022/08/18 10:44:23;;;;;;;8.73;8.02;;;;;;;23.16;74.02;100392.75;4930748;28;102211;-55
2022/08/18 10:46:52;;;;;;;9.13;8.38;;;;;;;23.16;74.02;100393.56;4947471;28;103911;-55
2022/08/18 10:49:24;;;;;;;8.55;7.85;;;;;;;23.17;73.91;100400.72;4915581;28;102295;-55
2022/08/18 10:52:21;;;;;;;8.35;7.65;;;;;;;23.16;73.73;100401.88;4915284;28;102265;-55
2022/08/18 10:55:19;;;;;;;7.60;6.90;;;;;;;23.17;73.89;100403.47;4915633;28;102315;-55
2022/08/18 10:58:08;;;;;;;7.80;7.20;;;;;;;23.16;73.68;100413.00;4977817;28;104052;-55
2022/08/18 11:00:47;;;;;;;7.80;7.20;;;;;;;23.15;73.89;100405.84;5036032;28;102271;-55
2022/08/18 11:03:30;;;;;;;8.10;7.50;;;;;;;23.14;74.07;100400.63;4958718;28;102720;-54
2022/08/18 11:06:03;;;;;;;8.65;7.85;;;;;;;23.13;74.10;100408.16;4960675;28;102572;-55
2022/08/18 11:08:37;;;;;;;7.43;6.82;;;;;;;23.13;74.10;100399.84;4972100;28;103914;-55
2022/08/18 11:11:06;;;;;;;7.95;7.25;;;;;;;23.13;74.09;100397.06;4975175;28;102051;-55
2022/08/18 11:13:45;;;;;;;7.90;7.30;;;;;;;23.13;73.93;100397.06;5033452;28;102471;-55
2022/08/18 11:16:35;;;;;;;7.85;7.25;;;;;;;23.12;73.94;100403.78;4932240;28;103677;-55
2022/08/18 11:19:07;;;;;;;8.20;7.60;;;;;;;23.11;74.18;100402.16;4960800;28;103930;-55
2022/08/18 11:21:39;;;;;;;7.82;7.22;;;;;;;23.11;74.03;100390.25;4920367;28;102504;-55
2022/08/18 11:24:17;;;;;;;8.27;7.57;;;;;;;23.11;74.07;100396.59;4963413;28;103778;-55
2022/08/18 11:56:25;;;;;;;8.25;7.65;;;;;;;23.07;74.42;100417.94;5035985;27;104651;-55
2022/08/18 11:58:54;;;;;;;7.28;6.78;;;;;;;23.06;74.52;100413.56;5001929;28;102304;-55
2022/08/18 12:01:31;;;;;;;8.38;7.57;;;;;;;23.04;74.47;100413.09;4988033;28;103882;-55
2022/08/18 12:04:06;;;;;;;8.23;7.53;;;;;;;23.04;74.45;100407.56;4994596;28;102219;-55
2022/08/18 12:06:35;;;;;;;8.10;7.50;;;;;;;23.04;74.48;100415.88;5013455;28;102411;-55
2022/08/18 12:09:04;;;;;;;8.02;7.32;;;;;;;23.03;74.51;100412.31;5011542;28;102144;-55
2022/08/18 12:11:35;;;;;;;8.10;7.50;;;;;;;23.03;74.62;100411.50;5013942;28;103927;-54
2022/08/18 12:14:06;;;;;;;9.10;8.30;;;;;;;23.03;74.58;100403.19;5013781;28;102376;-55
2022/08/18 12:16:38;;;;;;;7.97;7.35;;;;;;;23.02;74.49;100405.16;5013268;28;101849;-54
2022/08/18 12:19:08;;;;;;;8.05;7.38;;;;;;;23.00;74.58;100396.38;5020860;28;102045;-55
2022/08/18 12:21:38;;;;;;;7.63;7.03;;;;;;;23.01;74.82;100394.44;5004211;28;103839;-54
2022/08/18 12:24:12;;;;;;;9.52;8.73;;;;;;;23.02;74.67;100393.25;5011248;28;102070;-55